AirNav   Bose Proflight or Bose A20?
 
 545 users online  

5GA4 Air Acres Airport
Woodstock, Georgia, USA

GOING TO WOODSTOCK?


FAA INFORMATION EFFECTIVE 23 MAY 2019

Location

FAA Identifier: 5GA4
Lat/Long: 34-06-21.3530N / 084-26-54.7430W
34-06.355883N / 084-26.912383W
34.1059314 / -84.4485397
(estimated)
Elevation: 918 ft. / 279.8 m (surveyed)
Variation: 02W (1985)
From city: 3 miles E of WOODSTOCK, GA
Time zone: UTC -4 (UTC -5 during Standard Time)
Zip code: 30188

Airport Operations

Airport use: Private use. Permission required prior to landing
Activation date: 10/1978
Control tower: no
ARTCC: ATLANTA CENTER
FSS: MACON FLIGHT SERVICE STATION
Attendance: UNATNDD
Wind indicator: yes
Segmented circle: no

Airport Communications

WX AWOS-3PT at RYY (9 nm SW): PHONE 770-425-3406
WX AWOS-3 at CNI (12 nm N): 119.825 (770-704-6235)
WX ASOS at PDK (16 nm SE): PHONE 770-457-1691
WX ASOS at VPC (20 nm W): 120.525 (770-606-0375)
WX ASOS at FTY (20 nm S): PHONE 404-696-5660

Nearby radio navigation aids

VOR radial/distance  VOR name  Freq  Var
PDKr337/15.7PEACHTREE VOR/DME116.6005W
ATLr004/28.6ATLANTA VORTAC116.9005W
RMGr095/33.5ROME VORTAC115.4001E

 
NDB name  Hdg/Dist  Freq  Var  ID
CHERO173/9.041505WDJD -.. .--- -..
CARTERSVILLE110/20.430804WEVZ . ...- --..
FLOWERY BRANCH261/27.536503WFKV ..-. -.- ...-

Airport Services

Runway Information

Runway 18/36

Dimensions: 2000 x 100 ft. / 610 x 30 m
Surface: turf
RUNWAY 18  RUNWAY 36
Traffic pattern: leftleft
Obstructions: hill, 1500 ft. from runwayhill, 2000 ft. from runway
AND PLINES.

Airport Ownership and Management from official FAA records

Ownership: Privately-owned
Owner: AAPO
296 AIR ACRES WAY
WOODSTOCK, GA 30188
Manager: AAPO
296 AIR ACRES WAY
WOODSTOCK, GA 30188

Airport Operational Statistics

Aircraft based on the field: 26
Single engine airplanes: 24
Multi engine airplanes: 1
Helicopters: 1
    

Additional Remarks

HIGH TENSION PLINES LESS THAN 1 MILE FM END OF RY 36.
UPSLOPE TERRAIN WITH TALL TREES LESS THAN 1 MILE FM END OF RY 18.
PPR BEFORE LANDING.
FOR CD CTC ATLANTA APCH AT 678-364-6131.

Instrument Procedures

There are no published instrument procedures at 5GA4.

Some nearby airports with instrument procedures:

KRYY - Cobb County International Airport-McCollum Field (9 nm SW)
KMGE - Dobbins Air Reserve Base (12 nm S)
KCNI - Cherokee County Airport (12 nm N)
KPDK - Dekalb-Peachtree Airport (16 nm SE)
KVPC - Cartersville Airport (20 nm W)
KFTY - Fulton County Airport-Brown Field (20 nm S)
 
Loc | Ops | Rwys | IFR | FBO | Links
Com | Nav | Svcs | Stats | Notes
Area around 5GA4 (Air Acres Airport)
 
Road maps at: MapQuest Bing Google
 
Aerial photo
WARNING: Photo may not be current or correct
Aerial photo of 5GA4 (Air Acres Airport)
Photo taken 04-Aug-2018
looking north.

Do you have a better or more recent aerial photo of Air Acres Airport that you would like to share? If so, please send us your photo.

 
Sectional chart

 
Airport distance calculator
Flying to Air Acres Airport? Find the distance to fly.

From to 5GA4

Sunrise and sunset
Times for 18-Jun-2019
 Local
(UTC-4)
 Zulu
(UTC)
Morning civil twilight05:5809:58
Sunrise06:2710:27
Sunset20:5100:51
Evening civil twilight21:2001:20

Current date and time
Zulu (UTC)  18-Jun-2019 11:13:36
Local (UTC-4)  18-Jun-2019 07:13:36
 
METAR
KRYY 
9nm SW 
181050Z 00000KT 10SM SCT022 22/21 A3003 RMK AO2 SLP890 T02220211 $
KMGE 
12nm S 
181056Z 00000KT 7SM FEW020 FEW060 SCT160 OVC250 22/22 A3003 RMK AO2A SLP159 T02220215 $
KCNI 
12nm N 
180355Z AUTO 19013G23KT 10SM RA SCT027 BKN042 OVC055 23/20 A3011 RMK AO2
KPDK 
15nm SE 
181053Z 00000KT 9SM CLR 22/22 A3003 RMK AO2 SLP151 T02170217
KFTY 
20nm S 
181053Z 00000KT 10SM CLR 22/21 A3002 RMK AO2 SLP155 T02170211
TAF
KRYY 
9nm SW 
180520Z 1806/1906 VRB03KT P6SM VCSH FEW070 BKN100 FM181200 17003KT P6SM BKN015 FM181400 22004KT P6SM VCSH BKN025 FM181800 22005KT P6SM -SHRA BKN040 PROB30 1818/1824 4SM TSRA OVC030CB FM190000 20003KT P6SM VCSH BKN050 BKN080 FM190500 00000KT P6SM BKN025
KMGE 
12nm S 
180500Z 1805/1911 16005KT 9999 BKN250 QNH2995INS BECMG 1809/1810 17005KT 9999 OVC010 QNH3000INS BECMG 1813/1814 21005KT 9999 BKN020 BKN250 QNH3000INS BECMG 1817/1818 22010KT 9999 VCTS BKN035CB BKN250 QNH2992INS TX31/1822Z TN21/1811Z
KPDK 
15nm SE 
180520Z 1806/1906 VRB03KT P6SM VCSH FEW070 BKN100 FM181200 17003KT P6SM BKN015 FM181400 22004KT P6SM VCSH BKN025 FM181800 22005KT P6SM -SHRA BKN040 PROB30 1818/1824 4SM TSRA OVC030CB FM190000 20003KT P6SM VCSH BKN050 BKN080 FM190500 00000KT P6SM BKN025
KFTY 
20nm S 
180520Z 1806/1906 VRB03KT P6SM VCSH FEW070 BKN100 FM181200 17003KT P6SM BKN015 FM181400 22004KT P6SM VCSH BKN025 FM181800 22005KT P6SM -SHRA BKN040 PROB30 1818/1824 4SM TSRA OVC030CB FM190000 20003KT P6SM VCSH BKN050 BKN080 FM190500 00000KT P6SM BKN025
NOTAMs
Click for the latest NOTAMs
NOTAMs are issued by the DoD/FAA and will open in a separate window not controlled by AirNav.

 

 
 

Would you like to see your business listed on this page?

 If your business provides an interesting product or service to pilots, flight crews, aircraft, or users of the Air Acres Airport, you should consider listing it here.  To start the listing process, click on the button below
 
Add a business
 

Other Pages about Air Acres Airport

Update a link
 
Copyright © AirNav, LLC. All rights reserved. Privacy Policy  Contact